首页
METAR-TAF:

METAR-TAF

机场 :

琼斯伯勒, 阿肯色州, 美国

纬度: 35-50-14N, 经度: 090-38-35W, 海拔: 79米

当前天气观测

该预报发布于59分钟前的22:53 UTC
风速10节,风向西转西南
温度 18°C
湿度 73%
气压 1007 hPa
能見度: 16.1公里

METAR: KJBR 092253Z AUTO 25010KT 10SM 18/13 A2975 RMK AO2 SLP070 T01830128 $

时间: 17:52 (23:52 UTC)

预报

该预报发布于9分钟前的23:43 UTC
预报有效从10日的 00点(UTC)到 10日的 24点(UTC)
风速12节,风向西
能見度: 10公里
散云层高于1500英尺
多云层高于4000英尺
附近有阵雨
从 10日的 0100点(UTC)
风速12节,风向西北
能見度: 10公里
散云层高于2500英尺
阴天层高于5000英尺
附近有阵雨
从 10日的 0300点(UTC)
风速12节,风向北转西北,有时为18节阵风
能見度: 10公里
散云层高于2000英尺
阴天层高于3500英尺
附近有阵雨
从 10日的 0600点(UTC)
风速10节,风向北转西北
能見度: 10公里
阴天层高于1500英尺
小雨
从 10日的 1100点(UTC)
风速9节,风向
能見度: 9.7公里
阴天层高于1500英尺
小雪, 雨
从 10日的 1600点(UTC)
风速7节,风向
能見度: 10公里
散云层高于4000英尺
阴天层高于10000英尺

TAF: KJBR 092343Z 1000/1024 26012KT P6SM VCSH SCT015 BKN040 FM100100 31012KT P6SM VCSH SCT025 OVC050 FM100300 33012G18KT P6SM VCSH SCT020 OVC035 FM100600 34010KT P6SM -RA OVC015 FM101100 35009KT 6SM -SNRA OVC015 FM101600 01007KT P6SM SCT040 OVC100

超过4000个机场的气象观测和天气预报(METAR&TAF报告)。

可查询的气象台以黄色和红色小点在地图上表示。

将鼠标移到小点上方,可查看气象台名称。

然后点击查看天气观测和预报。

如需切换地图:点击带黑十字的绿色按钮放大地图;点击带横线的绿色按钮缩小地图;或者点击绿色箭头查看邻近地区的地图。


METAR-TAF: